sensor_id;sensor_type;location;lat;lon;timestamp;P1;durP1;ratioP1;P2;durP2;ratioP2
68353;SDS011;55274;43.060;25.618;2022-09-09T00:04:19;4.57;;;2.45;;
68353;SDS011;55274;43.060;25.618;2022-09-09T00:07:10;5.95;;;2.65;;
68353;SDS011;55274;43.060;25.618;2022-09-09T00:09:45;5.53;;;2.17;;
68353;SDS011;55274;43.060;25.618;2022-09-09T00:15:30;4.30;;;2.45;;
68353;SDS011;55274;43.060;25.618;2022-09-09T00:19:05;3.28;;;2.53;;
68353;SDS011;55274;43.060;25.618;2022-09-09T00:21:13;3.72;;;2.25;;
68353;SDS011;55274;43.060;25.618;2022-09-09T00:23:47;5.15;;;2.80;;
68353;SDS011;55274;43.060;25.618;2022-09-09T00:26:32;4.95;;;2.60;;
68353;SDS011;55274;43.060;25.618;2022-09-09T00:29:09;6.25;;;2.90;;
68353;SDS011;55274;43.060;25.618;2022-09-09T00:31:48;4.70;;;2.42;;
68353;SDS011;55274;43.060;25.618;2022-09-09T00:34:21;3.75;;;2.20;;
68353;SDS011;55274;43.060;25.618;2022-09-09T00:39:40;6.72;;;2.60;;
68353;SDS011;55274;43.060;25.618;2022-09-09T00:42:15;6.50;;;2.60;;
68353;SDS011;55274;43.060;25.618;2022-09-09T00:44:55;4.72;;;2.60;;
68353;SDS011;55274;43.060;25.618;2022-09-09T00:56:34;5.57;;;2.22;;
68353;SDS011;55274;43.060;25.618;2022-09-09T00:58:40;5.43;;;2.53;;
68353;SDS011;55274;43.060;25.618;2022-09-09T01:01:15;8.65;;;2.67;;
68353;SDS011;55274;43.060;25.618;2022-09-09T01:03:52;4.55;;;2.22;;
68353;SDS011;55274;43.060;25.618;2022-09-09T01:06:32;4.47;;;2.22;;
68353;SDS011;55274;43.060;25.618;2022-09-09T01:12:16;3.85;;;2.15;;
68353;SDS011;55274;43.060;25.618;2022-09-09T01:15:25;2.83;;;2.05;;
68353;SDS011;55274;43.060;25.618;2022-09-09T01:17:54;4.97;;;2.28;;
68353;SDS011;55274;43.060;25.618;2022-09-09T01:20:45;3.38;;;2.17;;
68353;SDS011;55274;43.060;25.618;2022-09-09T01:26:37;3.67;;;2.08;;
68353;SDS011;55274;43.060;25.618;2022-09-09T01:29:12;7.47;;;2.30;;
68353;SDS011;55274;43.060;25.618;2022-09-09T01:31:58;5.25;;;2.28;;
68353;SDS011;55274;43.060;25.618;2022-09-09T01:34:28;5.40;;;2.10;;
68353;SDS011;55274;43.060;25.618;2022-09-09T01:37:05;7.03;;;1.98;;
68353;SDS011;55274;43.060;25.618;2022-09-09T01:39:34;6.78;;;2.10;;
68353;SDS011;55274;43.060;25.618;2022-09-09T01:42:03;4.32;;;2.38;;
68353;SDS011;55274;43.060;25.618;2022-09-09T01:44:31;5.70;;;2.10;;
68353;SDS011;55274;43.060;25.618;2022-09-09T01:46:57;5.22;;;2.13;;
68353;SDS011;55274;43.060;25.618;2022-09-09T01:49:23;4.80;;;2.35;;
68353;SDS011;55274;43.060;25.618;2022-09-09T01:51:50;4.90;;;2.17;;
68353;SDS011;55274;43.060;25.618;2022-09-09T01:54:19;2.95;;;1.77;;
68353;SDS011;55274;43.060;25.618;2022-09-09T01:59:18;4.72;;;2.38;;
68353;SDS011;55274;43.060;25.618;2022-09-09T02:02:17;4.90;;;2.42;;
68353;SDS011;55274;43.060;25.618;2022-09-09T02:04:44;3.10;;;1.98;;
68353;SDS011;55274;43.060;25.618;2022-09-09T02:12:41;3.17;;;2.13;;
68353;SDS011;55274;43.060;25.618;2022-09-09T02:15:14;4.80;;;2.58;;
68353;SDS011;55274;43.060;25.618;2022-09-09T02:17:51;3.67;;;2.15;;
68353;SDS011;55274;43.060;25.618;2022-09-09T02:20:19;6.55;;;2.85;;
68353;SDS011;55274;43.060;25.618;2022-09-09T02:22:48;3.83;;;2.00;;
68353;SDS011;55274;43.060;25.618;2022-09-09T02:25:17;2.63;;;1.95;;
68353;SDS011;55274;43.060;25.618;2022-09-09T02:27:45;4.47;;;2.10;;
68353;SDS011;55274;43.060;25.618;2022-09-09T02:30:13;3.03;;;1.73;;
68353;SDS011;55274;43.060;25.618;2022-09-09T02:32:40;11.15;;;2.17;;
68353;SDS011;55274;43.060;25.618;2022-09-09T02:35:12;4.85;;;2.22;;
68353;SDS011;55274;43.060;25.618;2022-09-09T02:37:41;5.57;;;2.20;;
68353;SDS011;55274;43.060;25.618;2022-09-09T02:40:09;7.47;;;2.42;;
68353;SDS011;55274;43.060;25.618;2022-09-09T02:42:40;6.05;;;2.22;;
68353;SDS011;55274;43.060;25.618;2022-09-09T02:45:07;20.17;;;3.40;;
68353;SDS011;55274;43.060;25.618;2022-09-09T02:47:39;55.72;;;5.60;;
68353;SDS011;55274;43.060;25.618;2022-09-09T02:50:16;21.77;;;3.58;;
68353;SDS011;55274;43.060;25.618;2022-09-09T02:53:20;8.25;;;2.67;;
68353;SDS011;55274;43.060;25.618;2022-09-09T02:58:29;11.75;;;2.47;;
68353;SDS011;55274;43.060;25.618;2022-09-09T03:00:55;5.38;;;2.50;;
68353;SDS011;55274;43.060;25.618;2022-09-09T03:03:22;68.63;;;6.22;;
68353;SDS011;55274;43.060;25.618;2022-09-09T03:05:49;62.53;;;6.00;;
68353;SDS011;55274;43.060;25.618;2022-09-09T03:08:15;25.73;;;3.72;;
68353;SDS011;55274;43.060;25.618;2022-09-09T03:10:41;29.50;;;4.95;;
68353;SDS011;55274;43.060;25.618;2022-09-09T03:13:07;8.60;;;2.65;;
68353;SDS011;55274;43.060;25.618;2022-09-09T03:15:33;4.65;;;2.45;;
68353;SDS011;55274;43.060;25.618;2022-09-09T03:17:59;36.30;;;4.00;;
68353;SDS011;55274;43.060;25.618;2022-09-09T03:20:26;10.25;;;3.55;;
68353;SDS011;55274;43.060;25.618;2022-09-09T03:22:54;29.02;;;4.18;;
68353;SDS011;55274;43.060;25.618;2022-09-09T03:25:20;50.65;;;5.18;;
68353;SDS011;55274;43.060;25.618;2022-09-09T03:27:49;38.65;;;4.22;;
68353;SDS011;55274;43.060;25.618;2022-09-09T03:30:15;12.20;;;2.92;;
68353;SDS011;55274;43.060;25.618;2022-09-09T03:32:41;26.08;;;3.58;;
68353;SDS011;55274;43.060;25.618;2022-09-09T03:35:07;12.30;;;3.13;;
68353;SDS011;55274;43.060;25.618;2022-09-09T03:37:33;22.00;;;4.47;;
68353;SDS011;55274;43.060;25.618;2022-09-09T03:39:59;29.25;;;5.10;;
68353;SDS011;55274;43.060;25.618;2022-09-09T03:42:25;19.95;;;3.38;;
68353;SDS011;55274;43.060;25.618;2022-09-09T03:44:51;11.15;;;3.28;;
68353;SDS011;55274;43.060;25.618;2022-09-09T03:47:17;8.60;;;3.10;;
68353;SDS011;55274;43.060;25.618;2022-09-09T03:49:43;19.33;;;3.95;;
68353;SDS011;55274;43.060;25.618;2022-09-09T03:52:10;19.80;;;3.20;;
68353;SDS011;55274;43.060;25.618;2022-09-09T03:54:36;18.92;;;3.75;;
68353;SDS011;55274;43.060;25.618;2022-09-09T03:57:02;14.65;;;3.35;;
68353;SDS011;55274;43.060;25.618;2022-09-09T03:59:28;7.38;;;3.10;;
68353;SDS011;55274;43.060;25.618;2022-09-09T04:01:54;6.32;;;2.60;;
68353;SDS011;55274;43.060;25.618;2022-09-09T04:04:19;9.73;;;2.67;;
68353;SDS011;55274;43.060;25.618;2022-09-09T04:06:45;8.02;;;3.13;;
68353;SDS011;55274;43.060;25.618;2022-09-09T04:09:13;5.97;;;2.65;;
68353;SDS011;55274;43.060;25.618;2022-09-09T04:11:39;8.20;;;2.58;;
68353;SDS011;55274;43.060;25.618;2022-09-09T04:14:05;17.05;;;3.15;;
68353;SDS011;55274;43.060;25.618;2022-09-09T04:16:32;17.13;;;3.85;;
68353;SDS011;55274;43.060;25.618;2022-09-09T04:18:59;15.23;;;3.13;;
68353;SDS011;55274;43.060;25.618;2022-09-09T04:21:26;48.45;;;4.65;;
68353;SDS011;55274;43.060;25.618;2022-09-09T04:23:52;22.83;;;3.75;;
68353;SDS011;55274;43.060;25.618;2022-09-09T04:26:17;12.15;;;3.15;;
68353;SDS011;55274;43.060;25.618;2022-09-09T04:28:45;63.45;;;7.57;;
68353;SDS011;55274;43.060;25.618;2022-09-09T04:31:15;18.52;;;3.63;;
68353;SDS011;55274;43.060;25.618;2022-09-09T04:33:45;29.42;;;4.38;;
68353;SDS011;55274;43.060;25.618;2022-09-09T04:36:11;19.80;;;3.80;;
68353;SDS011;55274;43.060;25.618;2022-09-09T04:38:37;18.35;;;3.95;;
68353;SDS011;55274;43.060;25.618;2022-09-09T04:41:03;18.65;;;3.60;;
68353;SDS011;55274;43.060;25.618;2022-09-09T04:43:29;11.30;;;2.78;;
68353;SDS011;55274;43.060;25.618;2022-09-09T04:45:55;27.52;;;4.72;;
68353;SDS011;55274;43.060;25.618;2022-09-09T04:48:22;12.82;;;4.05;;
68353;SDS011;55274;43.060;25.618;2022-09-09T04:53:22;13.40;;;3.63;;
68353;SDS011;55274;43.060;25.618;2022-09-09T04:55:48;14.20;;;3.25;;
68353;SDS011;55274;43.060;25.618;2022-09-09T04:58:14;25.95;;;3.88;;
68353;SDS011;55274;43.060;25.618;2022-09-09T05:00:40;16.52;;;3.88;;
68353;SDS011;55274;43.060;25.618;2022-09-09T05:03:07;17.30;;;3.70;;
68353;SDS011;55274;43.060;25.618;2022-09-09T05:05:34;14.48;;;3.30;;
68353;SDS011;55274;43.060;25.618;2022-09-09T05:08:04;58.83;;;6.13;;
68353;SDS011;55274;43.060;25.618;2022-09-09T05:10:31;137.45;;;10.40;;
68353;SDS011;55274;43.060;25.618;2022-09-09T05:12:59;30.08;;;3.90;;
68353;SDS011;55274;43.060;25.618;2022-09-09T05:15:25;31.05;;;4.55;;
68353;SDS011;55274;43.060;25.618;2022-09-09T05:17:50;27.42;;;3.97;;
68353;SDS011;55274;43.060;25.618;2022-09-09T05:20:18;45.65;;;4.95;;
68353;SDS011;55274;43.060;25.618;2022-09-09T05:22:44;95.55;;;8.40;;
68353;SDS011;55274;43.060;25.618;2022-09-09T05:25:09;110.35;;;9.18;;
68353;SDS011;55274;43.060;25.618;2022-09-09T05:27:35;43.67;;;5.25;;
68353;SDS011;55274;43.060;25.618;2022-09-09T05:30:01;52.80;;;4.97;;
68353;SDS011;55274;43.060;25.618;2022-09-09T05:32:27;19.13;;;3.20;;
68353;SDS011;55274;43.060;25.618;2022-09-09T05:34:57;66.07;;;6.05;;
68353;SDS011;55274;43.060;25.618;2022-09-09T05:37:24;51.28;;;6.35;;
68353;SDS011;55274;43.060;25.618;2022-09-09T05:39:50;34.92;;;4.05;;
68353;SDS011;55274;43.060;25.618;2022-09-09T05:42:16;40.92;;;4.32;;
68353;SDS011;55274;43.060;25.618;2022-09-09T05:44:42;13.02;;;3.72;;
68353;SDS011;55274;43.060;25.618;2022-09-09T05:47:09;43.65;;;5.82;;
68353;SDS011;55274;43.060;25.618;2022-09-09T05:49:35;38.25;;;4.30;;
68353;SDS011;55274;43.060;25.618;2022-09-09T05:52:01;100.55;;;9.25;;
68353;SDS011;55274;43.060;25.618;2022-09-09T05:54:29;39.80;;;4.10;;
68353;SDS011;55274;43.060;25.618;2022-09-09T05:56:55;46.63;;;5.75;;
68353;SDS011;55274;43.060;25.618;2022-09-09T05:59:21;32.10;;;3.75;;
68353;SDS011;55274;43.060;25.618;2022-09-09T06:01:49;24.73;;;4.88;;
68353;SDS011;55274;43.060;25.618;2022-09-09T06:04:15;32.20;;;4.32;;
68353;SDS011;55274;43.060;25.618;2022-09-09T06:06:41;60.55;;;7.35;;
68353;SDS011;55274;43.060;25.618;2022-09-09T06:09:07;33.42;;;4.82;;
68353;SDS011;55274;43.060;25.618;2022-09-09T06:11:36;20.17;;;3.10;;
68353;SDS011;55274;43.060;25.618;2022-09-09T06:14:04;4.80;;;2.42;;
68353;SDS011;55274;43.060;25.618;2022-09-09T06:16:30;15.38;;;2.70;;
68353;SDS011;55274;43.060;25.618;2022-09-09T06:19:00;6.07;;;2.20;;
68353;SDS011;55274;43.060;25.618;2022-09-09T06:21:32;31.17;;;5.25;;
68353;SDS011;55274;43.060;25.618;2022-09-09T06:24:01;14.48;;;2.65;;
68353;SDS011;55274;43.060;25.618;2022-09-09T06:26:32;5.68;;;2.50;;
68353;SDS011;55274;43.060;25.618;2022-09-09T06:29:00;6.13;;;2.42;;
68353;SDS011;55274;43.060;25.618;2022-09-09T06:31:29;5.40;;;2.08;;
68353;SDS011;55274;43.060;25.618;2022-09-09T06:33:56;6.32;;;1.85;;
68353;SDS011;55274;43.060;25.618;2022-09-09T06:36:33;5.70;;;2.25;;
68353;SDS011;55274;43.060;25.618;2022-09-09T06:39:03;4.80;;;2.15;;
68353;SDS011;55274;43.060;25.618;2022-09-09T06:41:30;2.72;;;1.65;;
68353;SDS011;55274;43.060;25.618;2022-09-09T06:43:58;10.13;;;2.78;;
68353;SDS011;55274;43.060;25.618;2022-09-09T06:46:25;4.75;;;2.22;;
68353;SDS011;55274;43.060;25.618;2022-09-09T06:48:56;6.13;;;2.20;;
68353;SDS011;55274;43.060;25.618;2022-09-09T06:51:25;3.80;;;2.10;;
68353;SDS011;55274;43.060;25.618;2022-09-09T06:53:56;6.70;;;2.40;;
68353;SDS011;55274;43.060;25.618;2022-09-09T06:56:27;7.40;;;2.40;;
68353;SDS011;55274;43.060;25.618;2022-09-09T06:58:58;9.18;;;1.98;;
68353;SDS011;55274;43.060;25.618;2022-09-09T07:01:28;5.90;;;2.40;;
68353;SDS011;55274;43.060;25.618;2022-09-09T07:04:12;7.72;;;2.00;;
68353;SDS011;55274;43.060;25.618;2022-09-09T07:06:43;3.92;;;2.03;;
68353;SDS011;55274;43.060;25.618;2022-09-09T07:09:11;8.93;;;2.83;;
68353;SDS011;55274;43.060;25.618;2022-09-09T07:11:39;3.92;;;1.83;;
68353;SDS011;55274;43.060;25.618;2022-09-09T07:14:09;8.80;;;2.22;;
68353;SDS011;55274;43.060;25.618;2022-09-09T07:16:39;13.45;;;2.88;;
68353;SDS011;55274;43.060;25.618;2022-09-09T07:19:06;8.35;;;1.90;;
68353;SDS011;55274;43.060;25.618;2022-09-09T07:21:33;4.03;;;1.77;;
68353;SDS011;55274;43.060;25.618;2022-09-09T07:23:59;4.85;;;2.22;;
68353;SDS011;55274;43.060;25.618;2022-09-09T07:26:26;11.02;;;2.45;;
68353;SDS011;55274;43.060;25.618;2022-09-09T07:28:53;3.03;;;1.73;;
68353;SDS011;55274;43.060;25.618;2022-09-09T07:31:22;4.25;;;2.10;;
68353;SDS011;55274;43.060;25.618;2022-09-09T07:33:53;4.03;;;1.90;;
68353;SDS011;55274;43.060;25.618;2022-09-09T07:36:20;4.32;;;2.10;;
68353;SDS011;55274;43.060;25.618;2022-09-09T07:41:21;7.97;;;1.83;;
68353;SDS011;55274;43.060;25.618;2022-09-09T07:43:49;18.75;;;2.63;;
68353;SDS011;55274;43.060;25.618;2022-09-09T07:46:16;9.32;;;2.17;;
68353;SDS011;55274;43.060;25.618;2022-09-09T07:48:47;7.72;;;2.13;;
68353;SDS011;55274;43.060;25.618;2022-09-09T07:51:25;5.53;;;2.00;;
68353;SDS011;55274;43.060;25.618;2022-09-09T07:53:53;3.85;;;1.90;;
68353;SDS011;55274;43.060;25.618;2022-09-09T07:56:24;3.83;;;2.42;;
68353;SDS011;55274;43.060;25.618;2022-09-09T07:58:52;14.10;;;2.28;;
68353;SDS011;55274;43.060;25.618;2022-09-09T08:03:54;4.28;;;1.92;;
68353;SDS011;55274;43.060;25.618;2022-09-09T08:06:27;4.90;;;1.95;;
68353;SDS011;55274;43.060;25.618;2022-09-09T08:08:55;2.92;;;1.67;;
68353;SDS011;55274;43.060;25.618;2022-09-09T08:11:21;3.35;;;1.60;;
68353;SDS011;55274;43.060;25.618;2022-09-09T08:13:50;2.85;;;1.75;;
68353;SDS011;55274;43.060;25.618;2022-09-09T08:16:20;4.28;;;2.00;;
68353;SDS011;55274;43.060;25.618;2022-09-09T08:18:49;4.40;;;1.90;;
68353;SDS011;55274;43.060;25.618;2022-09-09T08:21:26;4.07;;;1.90;;
68353;SDS011;55274;43.060;25.618;2022-09-09T08:23:54;5.13;;;1.80;;
68353;SDS011;55274;43.060;25.618;2022-09-09T08:26:21;9.13;;;2.45;;
68353;SDS011;55274;43.060;25.618;2022-09-09T08:28:55;9.35;;;2.20;;
68353;SDS011;55274;43.060;25.618;2022-09-09T08:31:23;6.78;;;2.10;;
68353;SDS011;55274;43.060;25.618;2022-09-09T08:33:54;5.53;;;2.17;;
68353;SDS011;55274;43.060;25.618;2022-09-09T08:36:21;3.58;;;1.80;;
68353;SDS011;55274;43.060;25.618;2022-09-09T08:38:49;3.65;;;1.60;;
68353;SDS011;55274;43.060;25.618;2022-09-09T08:43:46;7.05;;;2.30;;
68353;SDS011;55274;43.060;25.618;2022-09-09T08:46:21;4.85;;;2.25;;
68353;SDS011;55274;43.060;25.618;2022-09-09T08:51:41;7.00;;;2.10;;
68353;SDS011;55274;43.060;25.618;2022-09-09T08:54:07;3.17;;;1.60;;
68353;SDS011;55274;43.060;25.618;2022-09-09T08:56:35;4.88;;;1.90;;
68353;SDS011;55274;43.060;25.618;2022-09-09T08:59:01;2.70;;;1.88;;
68353;SDS011;55274;43.060;25.618;2022-09-09T09:04:38;10.73;;;2.30;;
68353;SDS011;55274;43.060;25.618;2022-09-09T09:10:25;11.20;;;2.80;;
68353;SDS011;55274;43.060;25.618;2022-09-09T09:12:57;4.50;;;2.28;;
68353;SDS011;55274;43.060;25.618;2022-09-09T09:15:27;6.15;;;2.15;;
68353;SDS011;55274;43.060;25.618;2022-09-09T09:18:02;12.38;;;2.47;;
68353;SDS011;55274;43.060;25.618;2022-09-09T09:23:06;12.05;;;2.35;;
68353;SDS011;55274;43.060;25.618;2022-09-09T09:25:44;13.82;;;2.33;;
68353;SDS011;55274;43.060;25.618;2022-09-09T09:28:17;9.10;;;2.10;;
68353;SDS011;55274;43.060;25.618;2022-09-09T09:33:20;2.65;;;1.90;;
68353;SDS011;55274;43.060;25.618;2022-09-09T09:35:54;12.85;;;2.47;;
68353;SDS011;55274;43.060;25.618;2022-09-09T09:38:21;5.45;;;2.00;;
68353;SDS011;55274;43.060;25.618;2022-09-09T09:40:53;3.53;;;2.00;;
68353;SDS011;55274;43.060;25.618;2022-09-09T09:43:33;5.55;;;2.25;;
68353;SDS011;55274;43.060;25.618;2022-09-09T09:46:03;6.65;;;1.80;;
68353;SDS011;55274;43.060;25.618;2022-09-09T09:48:29;3.45;;;1.83;;
68353;SDS011;55274;43.060;25.618;2022-09-09T09:50:56;4.93;;;2.25;;
68353;SDS011;55274;43.060;25.618;2022-09-09T09:53:29;11.48;;;2.30;;
68353;SDS011;55274;43.060;25.618;2022-09-09T09:56:14;4.32;;;2.20;;
68353;SDS011;55274;43.060;25.618;2022-09-09T10:03:51;4.63;;;2.10;;
68353;SDS011;55274;43.060;25.618;2022-09-09T10:06:35;8.52;;;2.75;;
68353;SDS011;55274;43.060;25.618;2022-09-09T10:09:03;3.58;;;2.17;;
68353;SDS011;55274;43.060;25.618;2022-09-09T10:14:30;3.90;;;2.00;;
68353;SDS011;55274;43.060;25.618;2022-09-09T10:19:41;6.82;;;2.45;;
68353;SDS011;55274;43.060;25.618;2022-09-09T10:28:10;7.38;;;2.60;;
68353;SDS011;55274;43.060;25.618;2022-09-09T10:30:29;23.17;;;3.10;;
68353;SDS011;55274;43.060;25.618;2022-09-09T10:38:39;5.53;;;1.98;;
68353;SDS011;55274;43.060;25.618;2022-09-09T10:41:36;5.50;;;2.20;;
68353;SDS011;55274;43.060;25.618;2022-09-09T10:44:11;15.90;;;2.85;;
68353;SDS011;55274;43.060;25.618;2022-09-09T10:46:45;5.60;;;2.42;;
68353;SDS011;55274;43.060;25.618;2022-09-09T10:53:27;4.75;;;2.10;;
68353;SDS011;55274;43.060;25.618;2022-09-09T10:56:09;5.45;;;2.50;;
68353;SDS011;55274;43.060;25.618;2022-09-09T11:01:21;4.72;;;2.40;;
68353;SDS011;55274;43.060;25.618;2022-09-09T11:04:10;7.53;;;2.33;;
68353;SDS011;55274;43.060;25.618;2022-09-09T11:06:43;4.45;;;2.08;;
68353;SDS011;55274;43.060;25.618;2022-09-09T11:09:17;22.98;;;3.00;;
68353;SDS011;55274;43.060;25.618;2022-09-09T11:11:53;9.68;;;2.50;;
